Latest Weather Observations for Sheffield

IDT60801

Issued at 10:35 am EST Thursday 17 April 2014 (issued every 30 minutes, with the page automatically refreshed every 10 minutes)

About weather observations | Map of weather stations | Latest weather observations for TAS | Other Formats
Station Details ID: 091291 Name: SHEFFIELD SCHOOL FARM Lat: -41.39 Lon: 146.32 Height: 294.2 m
Data from the previous 72 hours. | See also: Recent months at Sheffield
Date/Time
EST
Temp
°C
App
Temp
°C
Dew
Point
Rel
Hum
%
Delta-T
°C
Wind Press
QNH
hPa
Press
MSL
hPa
Rain
since 9 am
mm
Dir
 
Spd
km/h
Gust
km/h
Spd
kts
Gust
kts
17/10:30am 14.6 14.1 12.1 85 1.4 ENE 6 9 3 5 1020.9 - 0.0
17/10:00am 14.4 14.4 12.4 88 1.1 E 4 7 2 4 1021.1 1021.1 0.0
17/09:30am 14.3 14.3 13.7 96 0.3 ESE 6 9 3 5 1021.2 - 0.0
17/09:00am 12.6 12.1 12.6 100 0.0 ESE 7 9 4 5 1021.3 1021.3 2.6
17/08:30am 11.8 11.2 11.8 100 0.0 SE 6 6 3 3 1021.3 - 2.2
17/08:00am 11.6 11.3 11.6 100 0.0 SE 4 6 2 3 1021.2 1021.2 2.0
17/07:30am 11.3 11.0 11.3 100 0.0 SSE 4 6 2 3 1021.0 - 2.0
17/07:00am 10.9 11.2 10.9 100 0.0 CALM 0 2 0 1 1020.8 1020.8 1.2
17/06:30am 11.0 10.2 11.0 100 0.0 ESE 6 7 3 4 1020.5 - 1.0
17/06:00am 11.0 11.0 11.0 100 0.0 SSE 2 4 1 2 1020.5 1020.5 0.0
17/05:30am 10.9 10.1 10.9 100 0.0 SE 6 7 3 4 1020.2 - 0.0
17/05:00am 10.6 9.5 10.6 100 0.0 ESE 7 9 4 5 1020.1 1020.1 0.0
17/04:30am 11.0 10.0 11.0 100 0.0 SE 7 9 4 5 1020.2 - 0.0
17/04:00am 10.8 10.3 10.8 100 0.0 SE 4 6 2 3 1020.2 1020.2 0.0
17/03:30am 10.3 9.3 10.3 100 0.0 SE 6 7 3 4 1020.0 - 0.0
17/03:00am 11.0 11.3 11.0 100 0.0 CALM 0 2 0 1 1020.3 1020.3 0.0
17/02:30am 10.9 10.4 10.9 100 0.0 S 4 6 2 3 1020.4 - 0.0
17/02:00am 10.6 9.7 10.6 100 0.0 SSE 6 6 3 3 1020.6 1020.6 0.0
17/01:30am 10.3 9.3 10.3 100 0.0 ESE 6 7 3 4 1020.5 - 0.0
17/01:00am 10.9 10.8 10.9 100 0.0 SE 2 4 1 2 1020.6 1020.6 0.0
17/12:30am 11.1 10.3 11.1 100 0.0 SE 6 6 3 3 1020.7 - 0.0
17/12:00am 11.3 10.9 11.1 99 0.1 SE 4 6 2 3 1020.8 1020.8 0.0
 
Date/Time
EST
Temp
°C
App
Temp
°C
Dew
Point
Rel
Hum
%
Delta-T
°C
Wind Press
QNH
hPa
Press
MSL
hPa
Rain
since 9 am
mm
Dir
 
Spd
km/h
Gust
km/h
Spd
kts
Gust
kts
16/11:30pm 11.3 10.9 11.1 99 0.1 ESE 4 4 2 2 1020.9 - 0.0
16/11:00pm 11.7 11.3 11.2 97 0.3 SSE 4 4 2 2 1021.1 1021.1 0.0
16/10:30pm 12.2 11.9 11.4 95 0.4 E 4 6 2 3 1021.3 - 0.0
16/10:00pm 12.3 12.0 11.4 94 0.5 NE 4 7 2 4 1021.0 1021.0 0.0
16/09:30pm 11.5 11.0 10.6 94 0.5 E 4 6 2 3 1020.9 - 0.0
16/09:00pm 12.2 12.5 10.8 91 0.7 CALM 0 0 0 0 1020.9 1020.9 0.0
16/08:30pm 12.1 11.6 10.7 91 0.7 N 4 6 2 3 1020.8 - 0.0
16/08:00pm 12.1 11.1 10.3 89 0.9 N 6 7 3 4 1020.8 1020.8 0.0
16/07:30pm 12.1 11.1 10.3 89 0.9 NNW 6 7 3 4 1020.7 - 0.0
16/07:00pm 12.6 11.8 9.6 82 1.5 N 4 4 2 2 1020.7 1020.7 0.0
16/06:30pm 13.5 12.8 9.9 79 1.9 N 4 6 2 3 1020.5 - 0.0
16/06:00pm 13.7 13.0 10.1 79 1.9 N 4 6 2 3 1020.4 1020.4 0.0
16/05:30pm 13.9 13.2 10.1 78 2.0 N 4 6 2 3 1020.4 - 0.0
16/05:00pm 14.2 13.1 10.0 76 2.2 N 6 7 3 4 1020.4 1020.4 0.0
16/04:30pm 15.1 14.3 9.7 70 2.8 NW 4 11 2 6 1020.2 - 0.0
16/04:00pm 15.5 14.1 9.6 68 3.1 ESE 7 15 4 8 1020.2 1020.2 0.0
16/03:30pm 15.8 14.9 9.2 65 3.5 NE 4 7 2 4 1020.3 - 0.0
16/03:00pm 15.7 15.5 9.1 65 3.4 CALM 0 2 0 1 1020.3 1020.3 0.0
16/02:30pm 16.4 16.1 10.0 66 3.4 NNW 2 7 1 4 1020.6 - 0.0
16/02:00pm 15.4 14.0 9.7 69 3.0 NNW 7 11 4 6 1020.8 1020.8 0.0
16/01:30pm 16.3 15.3 8.8 61 3.9 NE 4 7 2 4 1020.8 - 0.0
16/01:00pm 15.5 15.3 9.2 66 3.3 CALM 0 17 0 9 1021.0 1021.0 0.0
16/12:30pm 15.6 14.3 9.1 65 3.4 NNE 6 11 3 6 1021.4 - 0.0
16/12:00pm 15.3 13.9 9.0 66 3.3 NE 6 9 3 5 1021.7 1021.8 0.0
16/11:30am 15.0 13.6 9.4 69 2.9 E 7 11 4 6 1022.1 - 0.0
16/11:00am 14.4 12.5 9.0 70 2.8 E 9 15 5 8 1022.3 1022.4 0.0
16/10:30am 14.0 12.0 8.6 70 2.8 E 9 13 5 7 1022.4 - 0.0
16/10:00am 14.1 11.9 9.5 74 2.4 ESE 11 15 6 8 1022.5 1022.6 0.0
16/09:30am 12.9 10.4 8.2 73 2.4 SE 11 13 6 7 1022.9 - 0.0
16/09:00am 12.1 10.5 8.6 79 1.8 SE 7 13 4 7 1022.9 1022.9 0.0
16/08:30am 10.7 9.3 8.8 88 1.0 SE 6 7 3 4 1023.0 - 0.0
16/08:00am 8.7 7.1 7.8 94 0.4 SE 6 7 3 4 1023.0 1023.0 0.0
16/07:30am 8.0 6.1 6.9 93 0.5 SE 6 7 3 4 1022.9 - 0.0
16/07:00am 7.2 5.3 6.8 97 0.2 SE 6 7 3 4 1022.9 1022.9 0.0
16/06:30am 7.8 6.3 6.6 92 0.6 SE 4 4 2 2 1023.0 - 0.0
16/06:00am 7.9 6.3 6.5 91 0.7 SE 4 6 2 3 1022.9 1022.9 0.0
16/05:30am 7.6 5.6 6.4 92 0.6 ESE 6 6 3 3 1022.9 - 0.0
16/05:00am 8.3 6.2 6.6 89 0.8 SE 7 9 4 5 1022.9 1022.9 0.0
16/04:30am 8.2 6.1 6.8 91 0.7 ESE 7 9 4 5 1022.9 - 0.0
16/04:00am 8.9 7.2 7.7 92 0.6 SE 6 7 3 4 1022.9 1022.9 0.0
16/03:30am 8.7 7.3 7.3 91 0.7 S 4 6 2 3 1023.1 - 0.0
16/03:00am 8.5 6.5 6.3 86 1.0 ESE 6 9 3 5 1023.1 1023.1 0.0
16/02:30am 9.0 6.4 6.3 83 1.3 ESE 9 11 5 6 1023.4 - 0.0
16/02:00am 10.1 7.7 7.0 81 1.5 ESE 9 11 5 6 1023.7 1023.7 0.0
16/01:30am 10.5 7.8 7.2 80 1.6 ESE 11 15 6 8 1024.2 - 0.0
16/01:00am 10.7 8.3 7.2 79 1.7 ESE 9 13 5 7 1024.3 1024.3 0.0
16/12:30am 10.6 7.9 7.3 80 1.6 ESE 11 13 6 7 1024.5 - 0.0
16/12:00am 10.7 8.4 7.4 80 1.6 ESE 9 11 5 6 1024.5 1024.6 0.0
 
Date/Time
EST
Temp
°C
App
Temp
°C
Dew
Point
Rel
Hum
%
Delta-T
°C
Wind Press
QNH
hPa
Press
MSL
hPa
Rain
since 9 am
mm
Dir
 
Spd
km/h
Gust
km/h
Spd
kts
Gust
kts
15/11:30pm 10.2 8.3 7.6 84 1.3 ESE 7 9 4 5 1024.7 - 0.0
15/11:00pm 10.6 8.1 8.4 86 1.1 SE 11 15 6 8 1024.9 1025.0 0.0
15/10:30pm 10.7 9.5 10.2 97 0.3 SE 7 9 4 5 1025.0 - 0.0
15/10:00pm 10.9 9.0 10.4 97 0.3 SE 11 15 6 8 1025.1 1025.2 0.0
15/09:30pm 10.8 9.4 10.8 100 0.0 SE 9 11 5 6 1025.1 - 0.0
15/09:00pm 10.6 9.5 10.6 100 0.0 ESE 7 9 4 5 1025.1 1025.2 0.0
15/08:30pm 10.2 9.2 10.2 100 0.0 ESE 6 6 3 3 1025.1 - 0.0
15/08:00pm 10.7 10.2 10.7 100 0.0 E 4 4 2 2 1025.1 1025.2 0.0
15/07:30pm 11.1 10.7 11.1 100 0.0 NE 4 4 2 2 1024.9 - 0.0
15/07:00pm 11.6 11.3 11.6 100 0.0 NNE 4 4 2 2 1024.8 1024.9 0.0
15/06:30pm 12.0 12.2 11.8 99 0.1 N 2 4 1 2 1024.5 - 0.0
15/06:00pm 12.1 11.6 11.9 99 0.1 NNW 6 7 3 4 1024.0 1024.0 0.0
15/05:30pm 12.5 12.3 11.9 96 0.3 N 4 4 2 2 1023.8 - 0.0
15/05:00pm 12.6 11.7 11.3 92 0.7 NNW 7 9 4 5 1023.6 1023.6 0.0
15/04:30pm 13.1 11.7 11.0 87 1.1 N 9 13 5 7 1023.6 - 0.0
15/04:00pm 14.3 12.3 11.5 83 1.5 NNW 13 19 7 10 1023.5 1023.5 0.0
15/03:30pm 14.8 12.3 11.0 78 2.0 NNW 15 20 8 11 1023.6 - 0.0
15/03:00pm 15.2 14.1 10.0 71 2.7 NE 6 9 3 5 1023.6 1023.6 0.0
15/02:30pm 15.1 13.8 10.1 72 2.7 NE 7 9 4 5 1023.5 - 0.0
15/02:00pm 15.2 13.9 10.0 71 2.7 NNE 7 11 4 6 1023.5 1023.5 0.0
15/01:30pm 15.2 14.5 10.2 72 2.7 N 4 7 2 4 1023.6 - 0.0
15/01:00pm 16.0 14.9 10.1 68 3.1 E 6 11 3 6 1023.8 1023.8 0.0
15/12:30pm 14.9 14.2 10.1 73 2.5 E 4 9 2 5 1024.0 - 0.0
15/12:00pm 15.3 14.3 10.3 72 2.7 SSE 6 9 3 5 1024.4 1024.5 0.0
15/11:30am 14.8 13.6 10.4 75 2.3 SE 7 13 4 7 1024.7 - 0.0
15/11:00am 13.9 11.9 10.3 79 1.9 ESE 11 15 6 8 1024.8 1024.9 0.0
15/10:30am 13.4 11.1 10.4 82 1.6 ESE 13 19 7 10 1025.0 - 0.0
15/10:00am 12.3 9.6 10.2 87 1.1 SE 15 20 8 11 1025.1 1025.2 0.0
15/09:30am 11.7 8.5 9.9 89 0.9 ESE 17 22 9 12 1025.1 - 0.0
15/09:00am 11.0 8.1 9.8 92 0.6 ESE 15 20 8 11 1025.3 1025.4 0.0
15/08:30am 10.4 7.8 9.3 93 0.6 ESE 13 20 7 11 1025.3 - 0.0
15/08:00am 9.8 7.6 9.2 96 0.3 ESE 11 15 6 8 1025.0 1025.1 0.0
15/07:30am 9.7 7.0 9.1 96 0.3 SE 13 17 7 9 1024.7 - 0.0
15/07:00am 8.8 6.4 8.7 99 0.0 SE 11 15 6 8 1024.5 1024.6 0.0
15/06:30am 8.6 6.9 8.5 99 0.0 ESE 7 9 4 5 1024.3 - 0.0
15/06:00am 8.8 6.8 8.7 99 0.0 ESE 9 13 5 7 1024.1 1024.1 0.0
15/05:30am 8.8 6.8 8.7 99 0.0 ESE 9 13 5 7 1023.9 - 0.0
15/05:00am 9.1 6.7 8.8 98 0.1 ESE 11 13 6 7 1023.9 1023.9 0.0
15/04:30am 9.5 6.8 9.0 97 0.2 SE 13 19 7 10 1023.8 - 0.0
15/04:00am 9.6 7.3 9.0 96 0.3 ESE 11 17 6 9 1023.8 1023.8 0.0
15/03:30am 10.1 7.9 9.5 96 0.3 E 11 13 6 7 1023.8 - 0.0
15/03:00am 10.0 8.6 9.5 97 0.3 E 7 11 4 6 1023.8 1023.8 0.0
15/02:30am 10.3 8.5 9.4 94 0.5 E 9 13 5 7 1023.7 - 0.0
15/02:00am 10.7 8.6 9.8 94 0.5 E 11 17 6 9 1023.8 1023.8 0.0
15/01:30am 10.6 8.1 9.8 95 0.4 E 13 19 7 10 1023.8 - 0.0
15/01:00am 10.2 8.8 9.6 96 0.3 E 7 9 4 5 1023.8 1023.8 0.0
15/12:30am 10.5 8.8 9.7 95 0.4 ESE 9 13 5 7 1023.7 - 0.0
15/12:00am 11.0 8.3 10.2 95 0.4 ESE 15 19 8 10 1023.5 1023.5 0.0
 
Date/Time
EST
Temp
°C
App
Temp
°C
Dew
Point
Rel
Hum
%
Delta-T
°C
Wind Press
QNH
hPa
Press
MSL
hPa
Rain
since 9 am
mm
Dir
 
Spd
km/h
Gust
km/h
Spd
kts
Gust
kts
14/11:30pm 11.5 9.7 10.7 95 0.4 SE 11 15 6 8 1023.7 - 0.0
14/11:00pm 11.1 9.6 10.5 96 0.3 SE 9 9 5 5 1023.8 1023.8 0.0
14/10:30pm 10.7 9.5 10.4 98 0.2 ESE 7 9 4 5 1023.8 - 0.0
14/10:00pm 12.9 12.7 10.6 86 1.2 SW 2 4 1 2 1023.6 1023.6 0.0
14/09:30pm 12.4 11.7 10.0 85 1.2 WSW 4 4 2 2 1023.5 - 0.0
14/09:00pm 12.7 12.4 10.1 84 1.4 NW 2 4 1 2 1023.4 1023.4 0.0
14/08:30pm 12.8 12.9 10.0 83 1.5 CALM 0 0 0 0 1023.4 - 0.0
14/08:00pm 13.1 12.0 10.1 82 1.6 N 6 6 3 3 1023.3 1023.3 0.0
14/07:30pm 12.5 11.7 9.7 83 1.4 NNW 4 6 2 3 1023.2 - 0.0
14/07:00pm 13.0 12.2 9.6 80 1.8 N 4 6 2 3 1023.1 1023.1 0.0
14/06:30pm 13.1 11.9 9.5 79 1.9 N 6 6 3 3 1023.0 - 0.0
14/06:00pm 13.0 11.8 9.6 80 1.8 NNW 6 7 3 4 1022.7 1022.7 0.0
14/05:30pm 13.6 12.3 10.0 79 1.9 N 7 9 4 5 1022.4 - 0.0
14/05:00pm 14.1 12.1 10.3 78 2.0 N 11 13 6 7 1022.2 1022.3 0.0
14/04:30pm 15.1 12.9 10.7 75 2.4 NNW 13 15 7 8 1022.1 - 0.0
14/04:00pm 17.0 15.3 11.3 69 3.1 NNW 11 15 6 8 1022.1 1022.2 0.0
14/03:30pm 16.8 16.0 9.7 63 3.8 NE 4 7 2 4 1022.2 - 0.0
14/03:00pm 16.8 15.6 9.7 63 3.8 E 6 9 3 5 1022.2 1022.3 0.0
14/02:30pm 17.1 16.6 9.3 60 4.1 NNE 2 7 1 4 1022.3 - 0.0
14/02:00pm 17.5 16.4 8.4 55 4.7 E 4 7 2 4 1022.4 1022.5 0.0
14/01:30pm 17.9 17.5 9.8 59 4.3 NW 2 7 1 4 1022.5 - 0.0
14/01:00pm 18.2 17.9 10.1 59 4.4 SSE 2 4 1 2 1023.0 1023.0 0.0
14/12:30pm 16.6 15.6 8.8 60 4.1 SE 4 9 2 5 1023.3 - 0.0
14/12:00pm 16.5 15.4 8.5 59 4.1 NNW 4 6 2 3 1023.7 1023.7 0.0
14/11:30am 16.6 16.5 10.7 68 3.2 S 2 6 1 3 1023.9 - 0.0
14/11:00am 15.7 14.4 9.1 65 3.4 ESE 6 9 3 5 1023.9 1023.9 0.0

Other Formats:

Comma delimited format used in spreadsheet applications
http://www.bom.gov.au/fwo/IDT60801/IDT60801.94955.axf

JavaScript Object Notation format (JSON) in row-major order
http://www.bom.gov.au/fwo/IDT60801/IDT60801.94955.json